Fort Branch, IN (47648)

4:18 AM CDT on August 27, 2014 (GMT -0500)
White Church area | Change Station
CLOSE
Current Station
Personal Weather Station
Location: Princeton, IN
Elevation: 466 ft
Nearby Weather Stations
Active Advisory: Heat Advisory Active Notice: Public Information Statement

Elev 466 ft 38.33 °N, 87.61 °W | Updated 1 minute ago

Clear
Clear
71.2 °F
Feels Like 71.2 °F
N
0.0
Wind Variable Wind from SE

Today
High -- | Low -- °F
--% Chance of Precip.
Yesterday
High -- | Low -- °F
Precip. -- in
6:15 AM 7:27 PM
Waxing Crescent, 3% visible
Pressure 30.05 in
Visibility 6.0 miles
Clouds Clear
Dew Point 69 °F
Humidity 92%
Rainfall 0.00 in
Snow Depth Not available.
UV 0 out of 12
Pollen 10.40 out of 12
Ozone Good
PM2.5 Unhealthy for Sensitive Groups
Flu Activity Not available.
METAR KEVV 270854Z AUTO 00000KT 6SM BR CLR 24/22 A3006 RMK AO2 SLP175 T02390217 56008

More Conditions Fewer Conditions

Pressure 30.05 in
Visibility 6.0 miles
Clouds Clear
Dew Point 69 °F
Humidity 92%
Rainfall 0.00 in
Snow Depth Not available.
UV 0 out of 12
Pollen 10.40 out of 12
Ozone Good
PM2.5 Unhealthy for Sensitive Groups
Flu Activity Not available.
METAR KEVV 270854Z AUTO 00000KT 6SM BR CLR 24/22 A3006 RMK AO2 SLP175 T02390217 56008

More Conditions Fewer Conditions

10-Day Weather Forecast

Almanac

Astronomy

Aug. 27, 2014 Rise Set
Actual Time 6:15 AM CDT 7:27 PM CDT
Civil Twilight 5:48 AM CDT 7:54 PM CDT
Nautical Twilight 5:15 AM CDT 8:27 PM CDT
Astronomical Twilight 4:41 AM CDT 9:01 PM CDT
Moon 8:09 AM CDT 8:22 PM CDT
Length of Visible Light 14h 06m
Length of Day
13h 11m
Tomorrow will be 2m 20s shorter.
Waxing Crescent, 3% of the Moon is Illuminated
Today
Waxing Crescent
Sep 2
First Quarter
Sep 8
Full
Sep 15
Last Quarter
Sep 24
New

Today's Extremes

State Highs State Lows

Community

WunderPhotos

Upload Photos

1,747,661 photos uploaded!

Nearby

Air Quality

  Air Quality AQ Index Pollutant
Yesterday Moderate
PM2.5
Yesterday Moderate
OZONE
Current Unhealthy for Sensitive Groups
PM2.5
Current Good
OZONE
Wednesday Moderate
PM2.5
Wednesday Moderate
OZONE
Thursday Moderate
PM2.5
Thursday Good
OZONE
Friday Moderate
PM2.5
Friday Moderate
OZONE

Snow Depth

Station Depth Elevation
No new snow has been reported.

Earthquake Activity

City Distance Mag. Time & Date
No recent earthquake activity has been reported nearby.
Minimum magnitude displayed is 2.5.

Coastal Water Temperatures

Place Temperature
No Stations Reporting

Nearby Weather Stations